Terminal Aerodrome Forecast
Issued by NWS Charleston, WV

Current Version | Previous Version | Text Only | Print | Product List | Glossary Off
Versions: 1 2 3 4 5 6 7 8 9 10 11 12 13 14 15 16 17 18 19

000
FTUS41 KRLX 181000 AAA
TAFHTS
TAF AMD
KHTS 181055Z 1811/1906 27008KT P6SM SCT040
     FM181500 26010G15KT P6SM SKC
     FM190200 25006KT P6SM SKC=

USA.gov is the U.S. government's official web portal to all federal, state and local government web resources and services.